createdAt,value
2019-01-21T00:01:28.634Z,17.50
2019-01-21T00:03:58.474Z,17.60
2019-01-21T00:06:28.252Z,17.70
2019-01-21T00:08:57.961Z,17.80
2019-01-21T00:11:27.723Z,17.80
2019-01-21T00:13:57.445Z,17.80
2019-01-21T00:16:27.194Z,17.80
2019-01-21T00:18:56.965Z,17.80
2019-01-21T00:21:26.658Z,17.80
2019-01-21T00:23:56.402Z,17.80
2019-01-21T00:26:26.102Z,17.70
2019-01-21T00:28:55.782Z,17.70
2019-01-21T00:31:25.476Z,17.80
2019-01-21T00:33:55.163Z,17.70
2019-01-21T00:36:24.849Z,17.60
2019-01-21T00:38:54.531Z,17.70
2019-01-21T00:41:24.297Z,17.70
2019-01-21T00:43:53.991Z,17.70
2019-01-21T00:46:25.367Z,17.70
2019-01-21T00:48:55.062Z,17.70
2019-01-21T00:51:25.202Z,17.60
2019-01-21T00:53:54.889Z,17.70
2019-01-21T00:59:47.956Z,17.70
2019-01-21T01:02:17.723Z,17.60
2019-01-21T01:04:47.488Z,17.60
2019-01-21T01:07:17.263Z,17.40
2019-01-21T01:09:47.085Z,17.20
2019-01-21T01:12:16.787Z,17.30
2019-01-21T01:14:46.539Z,17.30
2019-01-21T01:17:16.394Z,17.30
2019-01-21T01:19:46.154Z,17.30
2019-01-21T01:22:15.939Z,17.30
2019-01-21T01:24:45.638Z,17.30
2019-01-21T01:27:15.327Z,17.30
2019-01-21T01:29:45.042Z,17.30
2019-01-21T01:32:14.730Z,17.30
2019-01-21T01:34:44.418Z,17.30
2019-01-21T01:37:14.117Z,17.30
2019-01-21T01:39:43.828Z,17.30
2019-01-21T01:42:13.688Z,17.30
2019-01-21T01:44:43.530Z,17.30
2019-01-21T01:47:13.312Z,17.30
2019-01-21T01:49:43.074Z,17.30
2019-01-21T01:52:12.842Z,17.40
2019-01-21T01:54:42.778Z,17.30
2019-01-21T01:57:12.551Z,17.30
2019-01-21T01:59:42.325Z,17.30
2019-01-21T02:02:12.112Z,17.30
2019-01-21T02:04:41.893Z,17.30
2019-01-21T02:07:11.679Z,17.40
2019-01-21T02:09:41.404Z,17.40
2019-01-21T02:12:11.168Z,17.30
2019-01-21T02:14:40.911Z,17.20
2019-01-21T02:17:10.628Z,17.20
2019-01-21T02:19:42.675Z,17.20
2019-01-21T02:22:13.670Z,17.30
2019-01-21T02:24:45.110Z,17.30
2019-01-21T02:27:30.806Z,17.40
2019-01-21T02:30:32.745Z,17.40
2019-01-21T02:33:58.951Z,17.30
2019-01-21T02:37:30.986Z,17.30
2019-01-21T02:40:11.524Z,17.30
2019-01-21T02:43:01.033Z,17.20
2019-01-21T02:46:07.122Z,17.10
2019-01-21T02:48:55.370Z,17.10
2019-01-21T02:51:58.377Z,17.10
2019-01-21T02:54:48.979Z,17.10
2019-01-21T02:57:51.868Z,17.10
2019-01-21T03:01:21.103Z,17.10
2019-01-21T03:04:21.252Z,17.10
2019-01-21T03:07:04.707Z,16.60
2019-01-21T03:10:02.693Z,16.70
2019-01-21T03:13:22.887Z,17.10
2019-01-21T03:16:26.252Z,17.50
2019-01-21T03:19:32.811Z,17.80
2019-01-21T03:22:56.812Z,18.20
2019-01-21T03:26:06.176Z,18.30
2019-01-21T03:29:27.955Z,18.30
2019-01-21T03:32:36.584Z,18.10
2019-01-21T03:35:51.875Z,18.40
2019-01-21T03:38:40.530Z,18.80
2019-01-21T03:41:54.547Z,18.40
2019-01-21T03:45:20.536Z,17.70
2019-01-21T03:48:05.654Z,17.20
2019-01-21T03:51:05.346Z,16.90
2019-01-21T03:54:00.100Z,16.60
2019-01-21T03:56:49.811Z,16.40
2019-01-21T03:59:56.843Z,16.30
2019-01-21T04:02:35.916Z,16.20
2019-01-21T04:05:56.256Z,16.10
2019-01-21T04:09:04.034Z,16.00
2019-01-21T04:12:00.000Z,16.00
2019-01-21T04:15:11.467Z,15.80
2019-01-21T04:18:24.342Z,15.80
2019-01-21T04:21:24.711Z,15.70
2019-01-21T04:24:31.354Z,15.70
2019-01-21T04:27:24.291Z,15.60
2019-01-21T04:30:33.050Z,15.60
2019-01-21T04:33:26.444Z,15.60
2019-01-21T04:36:30.526Z,15.50
2019-01-21T04:39:27.899Z,15.40
2019-01-21T04:42:20.355Z,15.30
2019-01-21T04:44:58.440Z,15.20
2019-01-21T04:48:19.153Z,15.20
2019-01-21T04:51:25.632Z,15.10
2019-01-21T04:54:41.356Z,15.10
2019-01-21T04:58:00.686Z,15.00
2019-01-21T05:00:57.009Z,15.00
2019-01-21T05:03:51.863Z,14.90
2019-01-21T05:07:11.642Z,14.90
2019-01-21T05:10:13.560Z,15.00
2019-01-21T05:13:23.128Z,15.10
2019-01-21T05:16:15.251Z,15.20
2019-01-21T05:19:28.071Z,15.30
2019-01-21T05:22:38.147Z,15.30
2019-01-21T05:25:43.469Z,15.40
2019-01-21T05:29:12.312Z,15.40
2019-01-21T05:32:09.900Z,15.30
2019-01-21T05:35:22.680Z,15.30
2019-01-21T05:38:33.496Z,15.30
2019-01-21T05:41:59.301Z,15.40
2019-01-21T05:44:46.459Z,15.40
2019-01-21T05:47:44.104Z,15.40
2019-01-21T05:50:45.171Z,15.40
2019-01-21T05:53:39.484Z,15.30
2019-01-21T05:56:38.826Z,15.30
2019-01-21T05:59:29.399Z,15.30
2019-01-21T06:02:16.517Z,15.30
2019-01-21T06:05:08.998Z,15.30
2019-01-21T06:08:05.283Z,15.30
2019-01-21T06:10:41.137Z,15.30
2019-01-21T06:13:51.627Z,15.40
2019-01-21T06:17:02.110Z,15.30
2019-01-21T06:19:53.431Z,15.30
2019-01-21T06:23:00.056Z,15.40
2019-01-21T06:26:09.579Z,15.30
2019-01-21T06:28:56.850Z,15.40
2019-01-21T06:31:57.675Z,15.30
2019-01-21T06:35:08.320Z,15.30
2019-01-21T06:38:08.174Z,15.20
2019-01-21T06:40:59.070Z,15.30
2019-01-21T06:44:14.950Z,15.30
2019-01-21T06:47:32.232Z,15.40
2019-01-21T06:50:48.063Z,15.40
2019-01-21T06:53:40.592Z,15.40
2019-01-21T06:56:47.625Z,15.30
2019-01-21T07:00:28.655Z,15.40
2019-01-21T07:03:36.710Z,15.40
2019-01-21T07:09:37.291Z,14.40
2019-01-21T07:12:46.925Z,14.00
2019-01-21T07:15:33.264Z,13.70
2019-01-21T07:18:42.585Z,13.60
2019-01-21T07:21:56.787Z,14.40
2019-01-21T07:24:51.081Z,15.20
2019-01-21T07:28:06.744Z,15.50
2019-01-21T07:31:26.415Z,15.70
2019-01-21T07:34:26.002Z,15.90
2019-01-21T07:37:33.791Z,16.10
2019-01-21T07:40:55.966Z,16.20
2019-01-21T07:43:55.794Z,16.10
2019-01-21T07:46:41.726Z,15.90
2019-01-21T07:49:56.224Z,16.10
2019-01-21T07:53:03.835Z,16.10
2019-01-21T07:56:15.400Z,16.00
2019-01-21T07:59:28.835Z,16.30
2019-01-21T08:02:45.887Z,16.70
2019-01-21T08:05:51.330Z,16.50
2019-01-21T08:09:08.223Z,16.40
2019-01-21T08:11:58.571Z,16.30
2019-01-21T08:15:02.296Z,16.20
2019-01-21T08:18:21.901Z,16.30
2019-01-21T08:21:29.926Z,16.50
2019-01-21T08:24:32.459Z,16.50
2019-01-21T08:27:17.831Z,16.60
2019-01-21T08:30:22.275Z,16.90
2019-01-21T08:33:19.585Z,16.90
2019-01-21T08:36:41.359Z,16.90
2019-01-21T08:39:38.842Z,17.00
2019-01-21T08:42:29.349Z,17.00
2019-01-21T08:45:18.245Z,17.10
2019-01-21T08:48:00.835Z,17.10
2019-01-21T08:50:47.294Z,17.30
2019-01-21T08:53:57.074Z,17.50
2019-01-21T08:56:52.970Z,17.60
2019-01-21T08:59:56.589Z,17.60
2019-01-21T09:03:07.739Z,17.80
2019-01-21T09:06:04.331Z,17.90
2019-01-21T09:08:54.574Z,17.80
2019-01-21T09:12:29.663Z,17.90
2019-01-21T09:15:25.308Z,18.20
2019-01-21T09:18:32.093Z,18.30
2019-01-21T09:21:22.130Z,18.50
2019-01-21T09:24:23.903Z,18.60
2019-01-21T09:27:10.038Z,18.60
2019-01-21T09:30:17.933Z,18.60
2019-01-21T09:33:10.893Z,18.50
2019-01-21T09:35:48.411Z,18.70
2019-01-21T09:38:42.953Z,18.90
2019-01-21T09:41:34.624Z,19.00
2019-01-21T09:44:43.892Z,19.00
2019-01-21T09:47:12.269Z,19.10
2019-01-21T09:49:43.797Z,19.20
2019-01-21T09:52:18.316Z,19.20
2019-01-21T09:54:49.669Z,19.30
2019-01-21T09:57:26.466Z,19.30
2019-01-21T10:00:03.166Z,19.30
2019-01-21T10:02:48.191Z,19.30
2019-01-21T10:05:18.834Z,19.40
2019-01-21T10:08:25.395Z,19.40
2019-01-21T10:11:37.192Z,19.40
2019-01-21T10:14:45.343Z,19.50
2019-01-21T10:17:54.743Z,19.50
2019-01-21T10:20:54.284Z,19.60
2019-01-21T10:23:57.683Z,19.60
2019-01-21T10:27:25.229Z,19.60
2019-01-21T10:30:21.002Z,19.60
2019-01-21T10:33:21.233Z,19.50
2019-01-21T10:36:31.823Z,19.50
2019-01-21T10:39:25.371Z,19.60
2019-01-21T10:42:39.449Z,19.70
2019-01-21T10:45:23.635Z,19.80
2019-01-21T10:48:21.974Z,19.90
2019-01-21T10:51:16.980Z,20.00
2019-01-21T10:54:16.052Z,20.00
2019-01-21T10:57:20.990Z,20.00
2019-01-21T11:00:30.704Z,20.00
2019-01-21T11:03:14.783Z,19.80
2019-01-21T11:06:20.262Z,19.90
2019-01-21T11:09:26.625Z,20.00
2019-01-21T11:12:18.858Z,20.00
2019-01-21T11:15:11.408Z,19.80
2019-01-21T11:17:55.602Z,19.80
2019-01-21T11:20:52.296Z,19.80
2019-01-21T11:24:01.559Z,19.80
2019-01-21T11:27:23.212Z,19.80
2019-01-21T11:30:19.682Z,19.70
2019-01-21T11:33:12.367Z,19.70
2019-01-21T11:36:29.456Z,19.70
2019-01-21T11:39:25.126Z,19.60
2019-01-21T11:42:16.679Z,19.50
2019-01-21T11:45:11.801Z,19.50
2019-01-21T11:48:31.131Z,19.50
2019-01-21T11:51:44.584Z,19.50
2019-01-21T11:55:00.277Z,19.50
2019-01-21T11:58:09.525Z,19.50
2019-01-21T12:00:53.903Z,19.40
2019-01-21T12:03:36.144Z,19.50
2019-01-21T12:06:13.204Z,19.40
2019-01-21T12:08:58.920Z,19.30
2019-01-21T12:11:48.698Z,19.40
2019-01-21T12:14:45.411Z,19.30
2019-01-21T12:17:52.262Z,19.30
2019-01-21T12:21:03.521Z,19.30
2019-01-21T12:23:57.238Z,19.30
2019-01-21T12:26:50.357Z,19.30
2019-01-21T12:30:12.990Z,19.20
2019-01-21T12:33:26.538Z,19.00
2019-01-21T12:36:47.142Z,18.90
2019-01-21T12:39:44.526Z,18.70
2019-01-21T12:42:45.024Z,18.30
2019-01-21T12:46:14.057Z,18.20
2019-01-21T12:49:39.949Z,18.10
2019-01-21T12:52:50.697Z,18.30
2019-01-21T12:55:57.120Z,18.30
2019-01-21T12:58:37.262Z,18.00
2019-01-21T13:01:16.242Z,18.10
2019-01-21T13:04:15.090Z,18.20
2019-01-21T13:07:23.776Z,18.30
2019-01-21T13:10:31.570Z,18.20
2019-01-21T13:13:30.073Z,18.30
2019-01-21T13:16:12.043Z,18.20
2019-01-21T13:18:54.176Z,18.30
2019-01-21T13:21:36.366Z,18.20
2019-01-21T13:24:18.586Z,18.20
2019-01-21T13:27:00.817Z,18.30
2019-01-21T13:29:42.583Z,18.30
2019-01-21T13:35:15.322Z,18.40
2019-01-21T13:37:57.373Z,18.40
2019-01-21T13:40:39.360Z,18.40
2019-01-21T13:43:39.697Z,18.30
2019-01-21T13:46:21.778Z,18.30
2019-01-21T13:49:22.023Z,18.40
2019-01-21T13:55:04.015Z,18.40
2019-01-21T13:57:50.199Z,18.40
2019-01-21T14:00:33.452Z,18.40
2019-01-21T14:03:34.246Z,18.30
2019-01-21T14:06:47.138Z,18.30
2019-01-21T14:09:58.119Z,18.30
2019-01-21T14:12:45.998Z,18.30
2019-01-21T14:15:42.276Z,18.40
2019-01-21T14:18:35.418Z,18.40
2019-01-21T14:21:20.211Z,18.30
2019-01-21T14:24:18.180Z,18.30
2019-01-21T14:27:02.409Z,18.20
2019-01-21T14:29:51.723Z,18.20
2019-01-21T14:33:00.065Z,18.30
2019-01-21T14:35:56.854Z,18.30
2019-01-21T14:39:10.485Z,18.30
2019-01-21T14:42:35.189Z,18.30
2019-01-21T14:45:31.702Z,18.10
2019-01-21T14:48:27.744Z,18.10
2019-01-21T14:51:44.641Z,18.10
2019-01-21T14:54:48.083Z,18.10
2019-01-21T14:57:45.915Z,18.20
2019-01-21T15:00:42.304Z,18.20
2019-01-21T15:04:06.207Z,18.20
2019-01-21T15:07:14.751Z,18.10
2019-01-21T15:10:19.258Z,17.90
2019-01-21T15:13:30.645Z,17.70
2019-01-21T15:16:22.639Z,17.60
2019-01-21T15:19:19.279Z,17.60
2019-01-21T15:22:56.152Z,17.50
2019-01-21T15:25:55.923Z,17.50
2019-01-21T15:28:51.950Z,17.50
2019-01-21T15:31:43.278Z,17.50
2019-01-21T15:34:35.264Z,17.50
2019-01-21T15:37:58.721Z,17.40
2019-01-21T15:41:10.097Z,17.40
2019-01-21T15:43:51.223Z,17.40
2019-01-21T15:46:56.697Z,17.40
2019-01-21T15:49:44.011Z,17.30
2019-01-21T15:52:51.439Z,17.30
2019-01-21T15:55:43.907Z,17.30
2019-01-21T15:58:41.695Z,17.40
2019-01-21T16:01:50.637Z,17.40
2019-01-21T16:04:36.132Z,17.40
2019-01-21T16:08:06.358Z,17.50
2019-01-21T16:11:18.979Z,17.60
2019-01-21T16:13:52.723Z,17.60
2019-01-21T16:16:50.187Z,17.70
2019-01-21T16:19:29.259Z,17.70
2019-01-21T16:22:41.289Z,17.70
2019-01-21T16:25:59.189Z,17.70
2019-01-21T16:29:14.104Z,17.70
2019-01-21T16:32:05.173Z,17.70
2019-01-21T16:34:49.451Z,17.70
2019-01-21T16:37:44.908Z,17.70
2019-01-21T16:40:39.760Z,17.80
2019-01-21T16:43:09.556Z,17.80
2019-01-21T16:45:39.417Z,17.80
2019-01-21T16:48:09.190Z,17.90
2019-01-21T16:50:38.963Z,17.90
2019-01-21T16:53:08.847Z,18.00
2019-01-21T16:55:38.688Z,17.90
2019-01-21T16:58:08.497Z,17.80
2019-01-21T17:00:38.215Z,17.80
2019-01-21T17:03:07.917Z,17.80
2019-01-21T17:05:37.683Z,17.90
2019-01-21T17:08:07.536Z,17.90
2019-01-21T17:10:39.245Z,17.90
2019-01-21T17:13:08.728Z,17.90
2019-01-21T17:15:39.397Z,17.90
2019-01-21T17:18:09.086Z,17.90
2019-01-21T17:20:38.847Z,17.90
2019-01-21T17:23:08.550Z,17.80
2019-01-21T17:25:38.387Z,17.80
2019-01-21T17:28:09.014Z,17.80
2019-01-21T17:30:39.075Z,17.90
2019-01-21T17:33:12.191Z,17.90
2019-01-21T17:35:41.885Z,17.90
2019-01-21T17:38:11.589Z,17.90
2019-01-21T17:40:41.926Z,18.00
2019-01-21T17:43:11.689Z,18.00
2019-01-21T17:45:41.473Z,18.00
2019-01-21T17:48:11.174Z,18.10
2019-01-21T17:50:40.873Z,18.10
2019-01-21T17:53:10.572Z,18.10
2019-01-21T17:55:40.412Z,18.10
2019-01-21T17:58:10.323Z,18.00
2019-01-21T18:00:40.155Z,18.00
2019-01-21T18:03:09.858Z,18.00
2019-01-21T18:05:39.634Z,18.00
2019-01-21T18:08:09.407Z,18.10
2019-01-21T18:10:39.182Z,18.10
2019-01-21T18:13:08.897Z,18.20
2019-01-21T18:15:38.596Z,18.10
2019-01-21T18:18:08.483Z,18.10
2019-01-21T18:20:38.298Z,18.20
2019-01-21T18:23:08.028Z,18.20
2019-01-21T18:25:37.746Z,18.20
2019-01-21T18:28:07.649Z,18.20
2019-01-21T18:30:37.558Z,18.20
2019-01-21T18:33:07.576Z,18.30
2019-01-21T18:35:37.275Z,18.20
2019-01-21T18:38:07.263Z,18.20
2019-01-21T18:40:37.061Z,18.20
2019-01-21T18:43:06.919Z,18.20
2019-01-21T18:45:36.716Z,18.30
2019-01-21T18:48:06.539Z,18.30
2019-01-21T18:50:36.337Z,18.30
2019-01-21T18:53:06.131Z,18.40
2019-01-21T18:55:35.903Z,18.40
2019-01-21T18:58:05.772Z,18.30
2019-01-21T19:00:35.498Z,18.30
2019-01-21T19:03:05.614Z,18.30
2019-01-21T19:05:35.542Z,18.30
2019-01-21T19:08:05.450Z,18.40
2019-01-21T19:10:35.164Z,18.40
2019-01-21T19:13:05.100Z,18.40
2019-01-21T19:15:34.819Z,18.30
2019-01-21T19:18:05.096Z,18.40
2019-01-21T19:20:34.819Z,18.30
2019-01-21T19:23:04.669Z,18.40
2019-01-21T19:25:34.457Z,18.40
2019-01-21T19:28:04.280Z,18.30
2019-01-21T19:30:35.060Z,18.20
2019-01-21T19:33:05.129Z,18.20
2019-01-21T19:35:38.773Z,18.20
2019-01-21T19:38:08.540Z,18.20
2019-01-21T19:40:38.405Z,18.30
2019-01-21T19:43:08.121Z,18.30
2019-01-21T19:45:37.932Z,18.30
2019-01-21T19:48:07.631Z,18.30
2019-01-21T19:50:37.408Z,18.30
2019-01-21T19:53:07.280Z,18.10
2019-01-21T19:55:39.440Z,18.10
2019-01-21T19:58:10.121Z,18.10
2019-01-21T20:00:40.085Z,18.20
2019-01-21T20:03:09.798Z,18.10
2019-01-21T20:05:39.509Z,18.20
2019-01-21T20:08:09.293Z,18.20
2019-01-21T20:10:40.051Z,18.20
2019-01-21T20:13:09.841Z,18.20
2019-01-21T20:15:39.720Z,18.10
2019-01-21T20:18:09.560Z,18.10
2019-01-21T20:20:40.988Z,18.00
2019-01-21T20:23:11.006Z,18.00
2019-01-21T20:25:40.789Z,18.00
2019-01-21T20:28:10.598Z,18.00
2019-01-21T20:30:40.422Z,18.00
2019-01-21T20:33:10.324Z,17.90
2019-01-21T20:35:40.098Z,17.90
2019-01-21T20:38:09.784Z,17.90
2019-01-21T20:40:39.540Z,18.00
2019-01-21T20:43:09.312Z,17.90
2019-01-21T20:45:39.012Z,17.90
2019-01-21T20:48:08.723Z,18.00
2019-01-21T20:50:38.481Z,18.00
2019-01-21T20:53:08.306Z,18.00
2019-01-21T20:55:38.008Z,18.10
2019-01-21T20:58:07.773Z,18.20
2019-01-21T21:00:37.480Z,18.30
2019-01-21T21:03:07.259Z,18.30
2019-01-21T21:05:37.111Z,18.20
2019-01-21T21:08:07.350Z,18.20
2019-01-21T21:10:37.310Z,18.30
2019-01-21T21:13:07.150Z,18.30
2019-01-21T21:15:36.958Z,18.20
2019-01-21T21:18:06.723Z,18.20
2019-01-21T21:20:36.436Z,18.30
2019-01-21T21:23:06.124Z,18.30
2019-01-21T21:25:35.817Z,18.30
2019-01-21T21:28:05.519Z,18.30
2019-01-21T21:30:35.283Z,18.30
2019-01-21T21:33:05.659Z,18.30
2019-01-21T21:35:35.523Z,18.30
2019-01-21T21:38:05.378Z,18.40
2019-01-21T21:40:35.069Z,18.40
2019-01-21T21:43:05.114Z,18.40
2019-01-21T21:45:35.188Z,18.40
2019-01-21T21:48:05.616Z,18.40
2019-01-21T21:50:35.453Z,18.40
2019-01-21T21:53:05.390Z,18.40
2019-01-21T21:55:35.154Z,18.20
2019-01-21T21:58:05.357Z,18.30
2019-01-21T22:00:35.187Z,18.30
2019-01-21T22:03:05.172Z,18.30
2019-01-21T22:05:35.013Z,18.30
2019-01-21T22:08:05.092Z,18.30
2019-01-21T22:10:35.210Z,18.40
2019-01-21T22:13:05.156Z,18.40
2019-01-21T22:15:34.845Z,18.40
2019-01-21T22:18:04.782Z,18.40
2019-01-21T22:20:34.482Z,18.40
2019-01-21T22:23:04.703Z,18.30
2019-01-21T22:25:34.384Z,18.20
2019-01-21T22:28:04.219Z,18.20
2019-01-21T22:30:33.907Z,18.20
2019-01-21T22:33:03.686Z,18.20
2019-01-21T22:35:33.730Z,18.10
2019-01-21T22:38:03.421Z,18.00
2019-01-21T22:40:33.114Z,18.00
2019-01-21T22:43:02.820Z,18.00
2019-01-21T22:45:32.522Z,18.10
2019-01-21T22:48:02.273Z,18.10
2019-01-21T22:50:31.969Z,18.10
2019-01-21T22:53:01.655Z,18.10
2019-01-21T22:55:31.373Z,18.00
2019-01-21T22:58:01.065Z,18.00
2019-01-21T23:00:50.186Z,18.00
2019-01-21T23:03:19.887Z,18.00
2019-01-21T23:05:49.720Z,17.90
2019-01-21T23:08:19.483Z,17.90
2019-01-21T23:10:49.335Z,18.00
2019-01-21T23:13:19.091Z,17.90
2019-01-21T23:15:49.767Z,17.90
2019-01-21T23:18:19.458Z,17.90
2019-01-21T23:20:49.535Z,17.90
2019-01-21T23:23:19.378Z,17.90
2019-01-21T23:25:49.087Z,17.90
2019-01-21T23:28:18.851Z,18.00
2019-01-21T23:30:48.620Z,18.10
2019-01-21T23:33:18.295Z,18.00
2019-01-21T23:35:48.367Z,18.00
2019-01-21T23:38:18.189Z,17.90
2019-01-21T23:40:47.908Z,17.90
2019-01-21T23:43:17.605Z,17.90
2019-01-21T23:45:47.307Z,17.90
2019-01-21T23:48:17.116Z,17.90
2019-01-21T23:50:46.817Z,17.90
2019-01-21T23:53:16.518Z,17.90
2019-01-21T23:55:46.364Z,17.80
2019-01-21T23:58:16.051Z,17.70
